Tourist Ferry Boat 3 — IQAQ — position and weather

sailwx.info

Track history (hours):
 
Tides and Currents Weather Stations Pressure Air Temp Water Temp Dewpoint Dewpoint Depression Visibility Wind Speed Wind Dir Waves Ship Positions

Tourist Ferry Boat 3

Last reported at 2016-Jul-25 06:33 UTC. Time now 2016-Jul-26 14:09 UTC.
Position N 40°46' E 014°02'.

Length 58 m; draft 1.8 m.

Type: Ship. MMSI: 247048900.

Date/timePositionNaut miles runAvg speedWind from/ knotsBaromVisibWave heightAir tempDewpointWater temp
2016-Jul-25 06:33N 40°46' E 014°02'5 0.4
2016-Jul-24 15:26N 40°49' E 014°07'5 6.2
2016-Jul-24 14:33N 40°46' E 014°02'5 5.4
2016-Jul-24 13:33N 40°49' E 014°07'1 0.4
2016-Jul-24 12:07N 40°49' E 014°06'5 8.5
2016-Jul-24 11:33N 40°46' E 014°02'5 5.3
2016-Jul-24 10:33N 40°49' E 014°07'5 4.8
2016-Jul-24 09:33N 40°46' E 014°02'5 3.3
2016-Jul-24 08:07N 40°49' E 014°07'0 0.0
2016-Jul-24 07:33N 40°49' E 014°07'5 5.3
2016-Jul-24 06:33N 40°46' E 014°02'0 0.0
2016-Jul-24 04:33N 40°46' E 014°02'5 5.3
2016-Jul-24 03:33N 40°49' E 014°07'0 0.0
2016-Jul-23 15:32N 40°49' E 014°07'5 5.5
2016-Jul-23 14:33N 40°46' E 014°02'5 5.4
2016-Jul-23 13:33N 40°49' E 014°07'0 0.0
2016-Jul-23 12:33N 40°49' E 014°07'5 5.3
2016-Jul-23 11:33N 40°46' E 014°02'5 5.4
2016-Jul-23 10:33N 40°49' E 014°07'4 4.1
2016-Jul-23 09:33N 40°46' E 014°04'3 3.3
2016-Jul-23 08:33N 40°49' E 014°06'1 0.8
2016-Jul-23 07:33N 40°49' E 014°07'5 5.3
2016-Jul-23 06:33N 40°46' E 014°02'0 0.1
2016-Jul-23 04:33N 40°46' E 014°02'5 5.3
2016-Jul-23 03:32N 40°49' E 014°07'0 0.0
2016-Jul-23 02:33N 40°49' E 014°07'0 0.0
2016-Jul-23 01:32N 40°49' E 014°07'0 0.0
2016-Jul-23 00:25N 40°49' E 014°07'0 0.0
2016-Jul-22 23:33N 40°49' E 014°07'0 0.0
2016-Jul-22 22:33N 40°49' E 014°07'0 0.0
2016-Jul-22 21:33N 40°49' E 014°07'0 0.0
2016-Jul-22 20:33N 40°49' E 014°07'0 0.0
2016-Jul-22 19:33N 40°49' E 014°07'0 0.0
2016-Jul-22 18:33N 40°49' E 014°07'0 0.0
2016-Jul-22 17:33N 40°49' E 014°07'0 0.0
2016-Jul-22 16:33N 40°49' E 014°07'0 0.0
2016-Jul-22 15:33N 40°49' E 014°07'5 5.4
2016-Jul-22 14:33N 40°46' E 014°02'5 5.4
2016-Jul-22 13:33N 40°49' E 014°07'0 0.0
2016-Jul-22 12:33N 40°49' E 014°07'5 5.3
2016-Jul-22 11:33N 40°46' E 014°02'5 5.4
2016-Jul-22 10:33N 40°49' E 014°07'4 4.3
2016-Jul-22 09:33N 40°46' E 014°03'3 3.5
2016-Jul-22 08:33N 40°49' E 014°06'1 0.8
2016-Jul-22 07:33N 40°49' E 014°07'5 1.8
2016-Jul-22 04:33N 40°46' E 014°02'5 0.4
2016-Jul-21 15:33N 40°49' E 014°07'5 5.3
2016-Jul-21 14:33N 40°46' E 014°02'5 5.3
2016-Jul-21 13:33N 40°49' E 014°07'0 0.0
2016-Jul-21 12:33N 40°49' E 014°07'5 5.1
2016-Jul-21 11:33N 40°46' E 014°02'5 5.1
2016-Jul-21 10:33N 40°49' E 014°07'4 4.1
2016-Jul-21 09:33N 40°46' E 014°04'3 3.3
2016-Jul-21 08:33N 40°49' E 014°06'1 0.8
2016-Jul-21 07:33N 40°49' E 014°07'5 5.3
2016-Jul-21 06:33N 40°46' E 014°02'5 5.4
2016-Jul-21 05:33N 40°49' E 014°07'5 5.4
2016-Jul-21 04:33N 40°46' E 014°02'5 0.4
2016-Jul-20 15:25N 40°49' E 014°07'5 6.1
2016-Jul-20 14:33N 40°46' E 014°02'5 5.3
2016-Jul-20 13:33N 40°49' E 014°07'0 0.0
2016-Jul-20 12:33N 40°49' E 014°07'5 5.4
2016-Jul-20 11:33N 40°46' E 014°02'5 5.3
2016-Jul-20 10:33N 40°49' E 014°07'4 4.0
2016-Jul-20 09:34N 40°46' E 014°04'3 3.4
2016-Jul-20 08:33N 40°49' E 014°06'1 0.6
2016-Jul-20 07:33N 40°49' E 014°07'5 5.3
2016-Jul-20 06:34N 40°46' E 014°02'5 5.2
2016-Jul-20 05:33N 40°49' E 014°07'5 5.4
2016-Jul-20 04:33N 40°46' E 014°02'5 5.3
2016-Jul-20 03:32N 40°49' E 014°07'0 0.0
2016-Jul-19 15:33N 40°49' E 014°07'5 4.9
2016-Jul-19 14:33N 40°46' E 014°02'5 4.9
2016-Jul-19 13:33N 40°49' E 014°07'0 0.0
2016-Jul-19 12:33N 40°49' E 014°07'5 5.4
2016-Jul-19 11:33N 40°46' E 014°02'5 5.3
2016-Jul-19 10:33N 40°49' E 014°07'4 4.0
2016-Jul-19 09:33N 40°46' E 014°04'3 3.2
2016-Jul-19 08:33N 40°49' E 014°06'1 0.8
2016-Jul-19 07:33N 40°49' E 014°07'5 5.3
2016-Jul-19 06:33N 40°46' E 014°02'0 0.0
2016-Jul-19 04:33N 40°46' E 014°02'5 0.4
2016-Jul-18 15:33N 40°49' E 014°07'5 4.9
2016-Jul-18 14:33N 40°46' E 014°02'5 4.7
2016-Jul-18 13:30N 40°49' E 014°07'0 0.0
2016-Jul-18 12:29N 40°49' E 014°07'5 5.4
2016-Jul-18 11:33N 40°46' E 014°02'5 5.0
2016-Jul-18 10:33N 40°49' E 014°07'5 4.8
2016-Jul-18 09:33N 40°46' E 014°02'4 4.3
2016-Jul-18 08:33N 40°49' E 014°06'1 0.6
2016-Jul-18 07:33N 40°49' E 014°07'5 5.3
2016-Jul-18 06:33N 40°46' E 014°02'5 5.3
2016-Jul-18 05:33N 40°49' E 014°07'5 5.4
2016-Jul-18 04:33N 40°46' E 014°02'5 0.4
2016-Jul-17 15:30N 40°49' E 014°07'5 5.7
2016-Jul-17 14:33N 40°46' E 014°02'5 5.4
2016-Jul-17 13:33N 40°49' E 014°07'0 0.0
2016-Jul-17 12:33N 40°49' E 014°07'5 5.3
2016-Jul-17 11:33N 40°46' E 014°02'5 5.3
2016-Jul-17 10:32N 40°49' E 014°07'4 4.5
2016-Jul-17 09:33N 40°46' E 014°03'4 4.0
2016-Jul-17 08:33N 40°49' E 014°06'1 0.5
2016-Jul-17 07:33N 40°49' E 014°07'5 5.4
2016-Jul-17 06:33N 40°46' E 014°02'0 0.0
2016-Jul-17 04:33N 40°46' E 014°02'5 5.2
2016-Jul-17 03:31N 40°49' E 014°07'0 0.0
2016-Jul-16 15:33N 40°49' E 014°07'5 4.9
2016-Jul-16 14:33N 40°46' E 014°02'5 4.7
2016-Jul-16 13:29N 40°49' E 014°07'0 0.0
2016-Jul-16 12:33N 40°49' E 014°07'5 5.4
2016-Jul-16 11:33N 40°46' E 014°02'5 5.4
2016-Jul-16 10:33N 40°49' E 014°07'4 4.1
2016-Jul-16 09:33N 40°46' E 014°04'4 4.0
2016-Jul-16 08:33N 40°49' E 014°07'0 0.1
2016-Jul-16 07:33N 40°49' E 014°07'5 5.3
2016-Jul-16 06:33N 40°46' E 014°02'0 0.0
2016-Jul-16 04:33N 40°46' E 014°02'5 5.4
2016-Jul-16 03:33N 40°49' E 014°07'0 0.0
2016-Jul-15 14:04N 40°49' E 014°07'0 0.0
2016-Jul-15 13:33N 40°49' E 014°07'0 0.0
2016-Jul-15 12:30N 40°49' E 014°07'0 0.0
2016-Jul-15 11:33N 40°49' E 014°07'0 0.0
2016-Jul-15 10:33N 40°49' E 014°07'0 0.0
2016-Jul-15 09:33N 40°49' E 014°07'0 0.0
2016-Jul-15 08:33N 40°49' E 014°07'0 0.0
2016-Jul-15 07:33N 40°49' E 014°07'  
Track history (hours):
 
Tides and Currents Weather Stations Pressure Air Temp Water Temp Dewpoint Dewpoint Depression Visibility Wind Speed Wind Dir Waves Ship Positions

Tourist Ferry Boat 3

Last reported at 2016-Jul-25 06:33 UTC. Time now 2016-Jul-26 14:09 UTC.
Position N 40°46' E 014°02'.

Length 58 m; draft 1.8 m.

Type: Ship. MMSI: 247048900.

Date/timePositionNaut miles runAvg speedWind from/ knotsBaromVisibWave heightAir tempDewpointWater temp
2016-Jul-25 06:33N 40°46' E 014°02'5 0.4
2016-Jul-24 15:26N 40°49' E 014°07'5 6.2
2016-Jul-24 14:33N 40°46' E 014°02'5 5.4
2016-Jul-24 13:33N 40°49' E 014°07'1 0.4
2016-Jul-24 12:07N 40°49' E 014°06'5 8.5
2016-Jul-24 11:33N 40°46' E 014°02'5 5.3
2016-Jul-24 10:33N 40°49' E 014°07'5 4.8
2016-Jul-24 09:33N 40°46' E 014°02'5 3.3
2016-Jul-24 08:07N 40°49' E 014°07'0 0.0
2016-Jul-24 07:33N 40°49' E 014°07'5 5.3
2016-Jul-24 06:33N 40°46' E 014°02'0 0.0
2016-Jul-24 04:33N 40°46' E 014°02'5 5.3
2016-Jul-24 03:33N 40°49' E 014°07'0 0.0
2016-Jul-23 15:32N 40°49' E 014°07'5 5.5
2016-Jul-23 14:33N 40°46' E 014°02'5 5.4
2016-Jul-23 13:33N 40°49' E 014°07'0 0.0
2016-Jul-23 12:33N 40°49' E 014°07'5 5.3
2016-Jul-23 11:33N 40°46' E 014°02'5 5.4
2016-Jul-23 10:33N 40°49' E 014°07'4 4.1
2016-Jul-23 09:33N 40°46' E 014°04'3 3.3
2016-Jul-23 08:33N 40°49' E 014°06'1 0.8
2016-Jul-23 07:33N 40°49' E 014°07'5 5.3
2016-Jul-23 06:33N 40°46' E 014°02'0 0.1
2016-Jul-23 04:33N 40°46' E 014°02'5 5.3
2016-Jul-23 03:32N 40°49' E 014°07'0 0.0
2016-Jul-23 02:33N 40°49' E 014°07'0 0.0
2016-Jul-23 01:32N 40°49' E 014°07'0 0.0
2016-Jul-23 00:25N 40°49' E 014°07'0 0.0
2016-Jul-22 23:33N 40°49' E 014°07'0 0.0
2016-Jul-22 22:33N 40°49' E 014°07'0 0.0
2016-Jul-22 21:33N 40°49' E 014°07'0 0.0
2016-Jul-22 20:33N 40°49' E 014°07'0 0.0
2016-Jul-22 19:33N 40°49' E 014°07'0 0.0
2016-Jul-22 18:33N 40°49' E 014°07'0 0.0
2016-Jul-22 17:33N 40°49' E 014°07'0 0.0
2016-Jul-22 16:33N 40°49' E 014°07'0 0.0
2016-Jul-22 15:33N 40°49' E 014°07'5 5.4
2016-Jul-22 14:33N 40°46' E 014°02'5 5.4
2016-Jul-22 13:33N 40°49' E 014°07'0 0.0
2016-Jul-22 12:33N 40°49' E 014°07'5 5.3
2016-Jul-22 11:33N 40°46' E 014°02'5 5.4
2016-Jul-22 10:33N 40°49' E 014°07'4 4.3
2016-Jul-22 09:33N 40°46' E 014°03'3 3.5
2016-Jul-22 08:33N 40°49' E 014°06'1 0.8
2016-Jul-22 07:33N 40°49' E 014°07'5 1.8
2016-Jul-22 04:33N 40°46' E 014°02'5 0.4
2016-Jul-21 15:33N 40°49' E 014°07'5 5.3
2016-Jul-21 14:33N 40°46' E 014°02'5 5.3
2016-Jul-21 13:33N 40°49' E 014°07'0 0.0
2016-Jul-21 12:33N 40°49' E 014°07'5 5.1
2016-Jul-21 11:33N 40°46' E 014°02'5 5.1
2016-Jul-21 10:33N 40°49' E 014°07'4 4.1
2016-Jul-21 09:33N 40°46' E 014°04'3 3.3
2016-Jul-21 08:33N 40°49' E 014°06'1 0.8
2016-Jul-21 07:33N 40°49' E 014°07'5 5.3
2016-Jul-21 06:33N 40°46' E 014°02'5 5.4
2016-Jul-21 05:33N 40°49' E 014°07'5 5.4
2016-Jul-21 04:33N 40°46' E 014°02'5 0.4
2016-Jul-20 15:25N 40°49' E 014°07'5 6.1
2016-Jul-20 14:33N 40°46' E 014°02'5 5.3
2016-Jul-20 13:33N 40°49' E 014°07'0 0.0
2016-Jul-20 12:33N 40°49' E 014°07'5 5.4
2016-Jul-20 11:33N 40°46' E 014°02'5 5.3
2016-Jul-20 10:33N 40°49' E 014°07'4 4.0
2016-Jul-20 09:34N 40°46' E 014°04'3 3.4
2016-Jul-20 08:33N 40°49' E 014°06'1 0.6
2016-Jul-20 07:33N 40°49' E 014°07'5 5.3
2016-Jul-20 06:34N 40°46' E 014°02'5 5.2
2016-Jul-20 05:33N 40°49' E 014°07'5 5.4
2016-Jul-20 04:33N 40°46' E 014°02'5 5.3
2016-Jul-20 03:32N 40°49' E 014°07'0 0.0
2016-Jul-19 15:33N 40°49' E 014°07'5 4.9
2016-Jul-19 14:33N 40°46' E 014°02'5 4.9
2016-Jul-19 13:33N 40°49' E 014°07'0 0.0
2016-Jul-19 12:33N 40°49' E 014°07'5 5.4
2016-Jul-19 11:33N 40°46' E 014°02'5 5.3
2016-Jul-19 10:33N 40°49' E 014°07'4 4.0
2016-Jul-19 09:33N 40°46' E 014°04'3 3.2
2016-Jul-19 08:33N 40°49' E 014°06'1 0.8
2016-Jul-19 07:33N 40°49' E 014°07'5 5.3
2016-Jul-19 06:33N 40°46' E 014°02'0 0.0
2016-Jul-19 04:33N 40°46' E 014°02'5 0.4
2016-Jul-18 15:33N 40°49' E 014°07'5 4.9
2016-Jul-18 14:33N 40°46' E 014°02'5 4.7
2016-Jul-18 13:30N 40°49' E 014°07'0 0.0
2016-Jul-18 12:29N 40°49' E 014°07'5 5.4
2016-Jul-18 11:33N 40°46' E 014°02'5 5.0
2016-Jul-18 10:33N 40°49' E 014°07'5 4.8
2016-Jul-18 09:33N 40°46' E 014°02'4 4.3
2016-Jul-18 08:33N 40°49' E 014°06'1 0.6
2016-Jul-18 07:33N 40°49' E 014°07'5 5.3
2016-Jul-18 06:33N 40°46' E 014°02'5 5.3
2016-Jul-18 05:33N 40°49' E 014°07'5 5.4
2016-Jul-18 04:33N 40°46' E 014°02'5 0.4
2016-Jul-17 15:30N 40°49' E 014°07'5 5.7
2016-Jul-17 14:33N 40°46' E 014°02'5 5.4
2016-Jul-17 13:33N 40°49' E 014°07'0 0.0
2016-Jul-17 12:33N 40°49' E 014°07'5 5.3
2016-Jul-17 11:33N 40°46' E 014°02'5 5.3
2016-Jul-17 10:32N 40°49' E 014°07'4 4.5
2016-Jul-17 09:33N 40°46' E 014°03'4 4.0
2016-Jul-17 08:33N 40°49' E 014°06'1 0.5
2016-Jul-17 07:33N 40°49' E 014°07'5 5.4
2016-Jul-17 06:33N 40°46' E 014°02'0 0.0
2016-Jul-17 04:33N 40°46' E 014°02'5 5.2
2016-Jul-17 03:31N 40°49' E 014°07'0 0.0
2016-Jul-16 15:33N 40°49' E 014°07'5 4.9
2016-Jul-16 14:33N 40°46' E 014°02'5 4.7
2016-Jul-16 13:29N 40°49' E 014°07'0 0.0
2016-Jul-16 12:33N 40°49' E 014°07'5 5.4
2016-Jul-16 11:33N 40°46' E 014°02'5 5.4
2016-Jul-16 10:33N 40°49' E 014°07'4 4.1
2016-Jul-16 09:33N 40°46' E 014°04'4 4.0
2016-Jul-16 08:33N 40°49' E 014°07'0 0.1
2016-Jul-16 07:33N 40°49' E 014°07'5 5.3
2016-Jul-16 06:33N 40°46' E 014°02'0 0.0
2016-Jul-16 04:33N 40°46' E 014°02'5 5.4
2016-Jul-16 03:33N 40°49' E 014°07'0 0.0
2016-Jul-15 14:04N 40°49' E 014°07'0 0.0
2016-Jul-15 13:33N 40°49' E 014°07'0 0.0
2016-Jul-15 12:30N 40°49' E 014°07'0 0.0
2016-Jul-15 11:33N 40°49' E 014°07'0 0.0
2016-Jul-15 10:33N 40°49' E 014°07'0 0.0
2016-Jul-15 09:33N 40°49' E 014°07'0 0.0
2016-Jul-15 08:33N 40°49' E 014°07'0 0.0
2016-Jul-15 07:33N 40°49' E 014°07'  

Dump ship's entire track history